Wisconsin Logo

Middleton, WI Single Family Real Estate Listings

80 Total Real Estate Listings * Click on table heading to sort
Date Posted Property Type Style Address Price Living Area Lot Size Price/Sq Ft.
2017-09-21 Single Family Ranch; Contemporary; Transitional 7710 Pamela Cir Middleton, WI 53593 $649,900 4,599 sq. ft. 65,340 sq. ft. $141
2017-09-20 Single Family Contemporary 4823 Breakers Rock Rd Middleton, WI 53597 $750,000 4,165 sq. ft. 12,197 sq. ft. $180
2017-09-19 Single Family Ranch 1324 Stratford Ct Middleton, WI 53562 $349,900 3,446 sq. ft. 15,769 sq. ft. $102
2017-09-15 Single Family Contemporary; Transitional 5019 Sawgrass Terr Middleton, WI 53597 $545,000 4,187 sq. ft. 6,098 sq. ft. $130
2017-09-14 Single Family Prairie/Craftsman 6748 Phil Lewis Way Middleton, WI 53562 $499,900 2,630 sq. ft. 4,356 sq. ft. $190
2017-09-13 Single Family Contemporary 2725 Dewey Ct Middleton, WI 53562 $1,375,000 3,032 sq. ft. 4,879 sq. ft. $454
2017-09-13 Single Family Colonial 3911 Rolling Hill Dr Middleton, WI 53562 $279,900 2,483 sq. ft. 11,761 sq. ft. $113
2017-09-13 Single Family Colonial 4600 Edgewood Ct Middleton, WI 53562 $369,900 2,693 sq. ft. 25,700 sq. ft. $137
2017-09-12 Single Family Prairie/Craftsman 4823 Breakers Rock Rd Middleton, WI 53597 $650,000 3,400 sq. ft. 12,197 sq. ft. $191
2017-09-12 Single Family Prairie/Craftsman 4748 Vosen Rd Middleton, WI 53562 $647,900 2,898 sq. ft. 30,056 sq. ft. $224
2017-09-10 Single Family Tri-Level; Contemporary 6627 Columbus Dr Middleton, WI 53562 $359,900 1,962 sq. ft. 12,632 sq. ft. $183
2017-09-01 Single Family Ranch 3445 Valley Woods Dr Middleton, WI 53593 $525,000 3,639 sq. ft. 65,340 sq. ft. $144
2017-09-01 Single Family Cape Cod 6506 Woodgate Rd Middleton, WI 53562 $468,500 2,988 sq. ft. 13,068 sq. ft. $157
2017-08-31 Single Family Colonial 5424 Upland Tr Middleton, WI 53562 $459,900 3,562 sq. ft. 13,286 sq. ft. $129
2017-08-31 Single Family Colonial 4570 Ellington Way Middleton, WI 53562 $459,900 2,666 sq. ft. 40,075 sq. ft. $173
2017-08-28 Single Family Cape Cod 6651 Columbus Dr Middleton, WI 53562 $369,900 2,102 sq. ft. 13,504 sq. ft. $176
2017-08-28 Single Family Colonial 7209 Spring Hill Dr Middleton, WI 53562 $425,000 2,719 sq. ft. 10,019 sq. ft. $156
2017-08-25 Single Family Contemporary; Transitional 7643 Heather Knoll Ln Middleton, WI 53593 $569,900 3,694 sq. ft. 47,480 sq. ft. $154
2017-08-19 Single Family Contemporary; Transitional 4643 Chalet St Middleton, WI 53562 $1,300,000 7,216 sq. ft. 43,647 sq. ft. $180
2017-08-18 Single Family Prairie/Craftsman 4320 Misty Valley Dr Middleton, WI 53562 $439,900 2,043 sq. ft. 7,841 sq. ft. $215
2017-08-16 Single Family 4921 Breakers Rock Rd Middleton, WI 53597 $800,000 3,678 sq. ft. 10,890 sq. ft. $218
2017-08-15 Single Family Contemporary L6 Welcome Dr Middleton, WI 53593 $895,000 3,896 sq. ft. 33,101 sq. ft. $230
2017-08-15 Single Family Transitional L13 Welcome Dr Middleton, WI 53593 $850,000 4,990 sq. ft. 40,075 sq. ft. $170
2017-08-15 Single Family Ranch; Bungalow L17 Welcome Dr Middleton, WI 53593 $850,000 4,310 sq. ft. 40,075 sq. ft. $197
2017-08-15 Single Family Prairie/Craftsman 3721 Cardinal Point Tr Middleton, WI 53593 $677,800 3,678 sq. ft. 34,412 sq. ft. $184
2017-08-15 Single Family Colonial 6402 Stonefield Rd Middleton, WI 53562 $499,900 3,122 sq. ft. 13,068 sq. ft. $160
2017-08-14 Single Family Transitional 5043 Congressional Hill Middleton, WI 53597 $579,900 3,236 sq. ft. 7,754 sq. ft. $179
2017-08-11 Single Family Raised Ranch 1726 Aurora St Middleton, WI 53562 $315,000 1,536 sq. ft. 16,553 sq. ft. $205
2017-08-04 Single Family Colonial 7020 Elmwood Ave Middleton, WI 53562 $250,000 1,250 sq. ft. 7,187 sq. ft. $200
2017-08-04 Single Family Tudor/Provincial 7609 Westchester Dr Middleton, WI 53562 $379,900 2,584 sq. ft. 11,500 sq. ft. $147
2017-08-04 Single Family Transitional 7766 Solstice Ct Middleton, WI 53593 $730,000 4,615 sq. ft. 64,033 sq. ft. $158
2017-08-04 Single Family Ranch 3421 Webber Rd Middleton, WI 53562 $165,999 1,110 sq. ft. 4,356 sq. ft. $150
2017-08-03 Single Family Ranch 5031 Sawgrass Terr Middleton, WI 53597 $429,900 2,654 sq. ft. 7,318 sq. ft. $162
2017-08-03 Single Family Ranch 4869 Highwood Cir Middleton, WI 53562 $569,900 4,034 sq. ft. 31,363 sq. ft. $141
2017-08-01 Single Family Colonial 3808 Bunker Hill Middleton, WI 53562 $329,900 1,824 sq. ft. 20,865 sq. ft. $181
2017-07-31 Single Family Ranch 6509 Elmwood Ave Middleton, WI 53562 $269,900 1,672 sq. ft. 11,326 sq. ft. $161
2017-07-31 Single Family Ranch 6642 Maywood Ave Middleton, WI 53562 $315,000 2,228 sq. ft. 11,761 sq. ft. $141
2017-07-27 Single Family Transitional 7854 Black River Rd Middleton, WI 53593 $634,900 4,983 sq. ft. 25,265 sq. ft. $127
2017-07-20 Single Family Raised Ranch 3712 Lexington Cir Middleton, WI 53562 $375,000 2,908 sq. ft. 17,685 sq. ft. $129
2017-07-18 Single Family Contemporary 5526 Grassland Tr Middleton, WI 53562 $510,000 3,626 sq. ft. 13,068 sq. ft. $141
2017-07-14 Single Family Ranch 3453 Mound View Rd Middleton, WI 53593 $459,900 3,172 sq. ft. 51,401 sq. ft. $145
2017-07-12 Single Family Colonial 3821 Patrick Henry Way Middleton, WI 53562 $265,000 1,657 sq. ft. 11,326 sq. ft. $160
2017-07-07 Single Family Raised Ranch 5808 Taft St Middleton, WI 53562 $289,900 1,682 sq. ft. 6,098 sq. ft. $172
2017-07-07 Single Family Colonial; Transitional 4310 Goldfinch Cir Middleton, WI 53562 $489,900 4,100 sq. ft. 13,852 sq. ft. $119
2017-07-07 Single Family Ranch 4597 Stonewood Dr Middleton, WI 53562 $375,000 3,705 sq. ft. 54,450 sq. ft. $101
2017-07-06 Single Family Colonial 3821 Constitution Dr Middleton, WI 53562 $299,500 1,733 sq. ft. 10,454 sq. ft. $173
2017-07-05 Single Family Prairie/Craftsman 7130 Peak View Way Middleton, WI 53562 $464,900 2,315 sq. ft. 9,060 sq. ft. $201
2017-07-04 Single Family Tudor/Provincial; Colonial 5305 Jonquil Ct Middleton, WI 53562 $315,000 2,564 sq. ft. 13,504 sq. ft. $123
2017-06-28 Single Family Colonial 5314 Indigo Way Middleton, WI 53562 $439,900 2,882 sq. ft. 11,326 sq. ft. $153
2017-06-13 Single Family National Folk/Farm; Prairie/Craftsman 6754 Chickahauk Tr Middleton, WI 53562 $600,000 4,000 sq. ft. 6,970 sq. ft. $150
2017-06-09 Single Family Prairie/Craftsman 4439 Misty Valley Dr Middleton, WI 53562 $524,900 2,857 sq. ft. 16,988 sq. ft. $184
2017-06-06 Single Family Prairie/Craftsman 3306 Glacier Ridge Rd Middleton, WI 53562 $374,900 1,971 sq. ft. 3,049 sq. ft. $190
2017-06-06 Single Family Ranch 2939 Tomahawk Ct Middleton, WI 53562 $169,900 1,200 sq. ft. 17,424 sq. ft. $142
2017-06-02 Single Family Ranch 3585 Mathias Way Middleton, WI 53593 $349,900 3,600 sq. ft. 27,878 sq. ft. $97
2017-06-02 Single Family Bungalow 3320 Glacier Ridge Rd Middleton, WI 53562 $570,000 3,300 sq. ft. 4,356 sq. ft. $173
2017-05-31 Single Family National Folk/Farm 5018 Sawgrass Terr Middleton, WI 53597 $500,000 3,192 sq. ft. 6,665 sq. ft. $157
2017-05-25 Single Family Ranch 5033 St Annes Dr Middleton, WI 53562 $549,900 3,030 sq. ft. 6,970 sq. ft. $181
2017-05-23 Single Family Contemporary; Prairie/Craftsman 3325 Prairie Glade Rd Middleton, WI 53562 $550,000 2,662 sq. ft. 7,057 sq. ft. $207
2017-05-23 Single Family Ranch 7833 Ox Trail Way Middleton, WI 53593 $619,000 1,945 sq. ft. 42,689 sq. ft. $318
2017-05-11 Single Family Transitional 5023 Sawgrass Terr Middleton, WI 53597 $460,000 2,250 sq. ft. 6,560 sq. ft. $204
2017-04-28 Single Family Ranch; Prairie/Craftsman 6909 Ramsey Rd Middleton, WI 53562 $540,000 3,469 sq. ft. 6,273 sq. ft. $156
2017-04-28 Single Family Transitional 7718 Almor Dr Middleton, WI 53593 $975,000 6,329 sq. ft. 69,696 sq. ft. $154
2017-04-15 Single Family Bungalow; Prairie/Craftsman 6801 Aldo Leopold Way Middleton, WI 53562 $500,000 2,931 sq. ft. 6,534 sq. ft. $171
2017-04-13 Single Family Cape Cod 3292 Saracen Way Middleton, WI 53593 $899,900 6,924 sq. ft. 38,943 sq. ft. $130
2017-04-07 Single Family Contemporary; Transitional 7682 Schiller Ct Middleton, WI 53562 $1,069,500 8,168 sq. ft. 63,162 sq. ft. $131
2017-04-04 Single Family Ranch 3908 Signature Dr Middleton, WI 53562 $610,000 4,052 sq. ft. 25,570 sq. ft. $151
2017-04-03 Single Family Transitional 7516 Loveland Pass Middleton, WI 53593 $739,900 3,138 sq. ft. 32,670 sq. ft. $236
2017-03-23 Single Family Contemporary; Prairie/Craftsman 5307 Indigo Way Middleton, WI 53562 $499,900 3,245 sq. ft. 12,197 sq. ft. $154
2017-03-18 Single Family Colonial 3738 Sequoia Tr Middleton, WI 53593 $349,900 3,251 sq. ft. 57,499 sq. ft. $108
2017-03-16 Single Family Ranch; Prairie/Craftsman; Transitional 5042 Augusta Dr Middleton, WI 53597 $574,000 3,166 sq. ft. 10,454 sq. ft. $181
2017-03-13 Single Family Transitional L12 Loveland Pass Middleton, WI 53593 $748,900 2,882 sq. ft. 33,454 sq. ft. $260
2017-02-23 Single Family Ranch 1373 Boundary Rd Middleton, WI 53562 $544,900 4,476 sq. ft. 13,068 sq. ft. $122
2017-01-04 Single Family Transitional 4540 Nina Ln Middleton, WI 53562 $849,900 5,470 sq. ft. 60,984 sq. ft. $155
2017-01-03 Single Family Bungalow 6019 Lake St Middleton, WI 53562 $259,900 700 sq. ft. 2,178 sq. ft. $371
2016-12-19 Single Family Ranch; Prairie/Craftsman 5050 Congressional Hill Middleton, WI 53597 $649,000 3,835 sq. ft. 15,682 sq. ft. $169
2016-12-12 Single Family Prairie/Craftsman 4416 Back Nine Dr Middleton, WI 53597 $629,900 2,459 sq. ft. 12,197 sq. ft. $256
2016-04-11 Single Family Ranch 7629 English Daisy Ct Middleton, WI 53593 $599,900 2,549 sq. ft. 36,111 sq. ft. $235
2016-03-18 Single Family Colonial 4910 Augusta Dr Middleton, WI 53597 $654,900 2,712 sq. ft. 14,375 sq. ft. $241
2016-03-15 Single Family Contemporary 2898 Tomahawk Ct Middleton, WI 53562 $1,199,000 7,198 sq. ft. 14,375 sq. ft. $167
2016-03-02 Single Family Prairie/Craftsman 5018 Congressional Hill Middleton, WI 53597 $579,900 2,291 sq. ft. 14,810 sq. ft. $253